Time;durP1;ratioP1;P1;durP2;ratioP2;P2;SDS_P1;SDS_P2;PMS_P1;PMS_P2;Temp;Humidity;BMP_temperature;BMP_pressure;BME280_temperature;BME280_humidity;BME280_pressure;Samples;Min_cycle;Max_cycle;Signal;HPM_P1;HPM_P2
2022/03/26 00:00:18;;;;;;;;;54.75;41.25;;;;;12.71;42.41;102479.06;5090773;27;45531;-66
2022/03/26 00:02:44;;;;;;;;;57.50;45.50;;;;;12.72;43.05;102482.66;5063254;28;46433;-67
2022/03/26 00:05:10;;;;;;;;;58.75;46.00;;;;;12.65;43.23;102495.06;5074135;28;45404;-67
2022/03/26 00:07:36;;;;;;;;;58.25;42.50;;;;;12.60;42.76;102494.53;5064227;27;45472;-67
2022/03/26 00:10:05;;;;;;;;;46.00;40.25;;;;;12.54;43.29;102486.84;5072077;28;45583;-67
2022/03/26 00:12:30;;;;;;;;;61.00;46.00;;;;;12.47;43.46;102484.59;5065071;28;46433;-66
2022/03/26 00:14:55;;;;;;;;;56.00;43.00;;;;;12.53;43.44;102490.56;5070328;28;45424;-67
2022/03/26 00:17:21;;;;;;;;;58.50;43.50;;;;;12.52;43.42;102494.28;5067408;28;45624;-66
2022/03/26 00:19:46;;;;;;;;;58.00;44.50;;;;;12.41;43.30;102485.09;5075090;28;45633;-67
2022/03/26 00:22:12;;;;;;;;;57.50;44.75;;;;;12.44;43.83;102486.69;5067466;28;46654;-67
2022/03/26 00:24:37;;;;;;;;;59.50;44.25;;;;;12.38;43.54;102501.66;5071479;28;45436;-67
2022/03/26 00:27:03;;;;;;;;;52.25;42.00;;;;;12.42;43.45;102485.91;5077127;28;45911;-67
2022/03/26 00:29:28;;;;;;;;;54.75;41.25;;;;;12.37;43.87;102494.47;5086219;27;45277;-66
2022/03/26 00:31:54;;;;;;;;;53.00;41.50;;;;;12.27;44.39;102487.97;5069943;28;46078;-68
2022/03/26 00:34:19;;;;;;;;;51.00;39.75;;;;;12.13;45.18;102473.69;5073933;28;45371;-67
2022/03/26 00:36:44;;;;;;;;;61.00;46.50;;;;;12.08;45.04;102484.91;5071470;27;45367;-68
2022/03/26 00:39:10;;;;;;;;;50.75;37.50;;;;;12.14;44.61;102489.03;5075340;28;45415;-68
2022/03/26 00:41:35;;;;;;;;;55.25;41.25;;;;;12.04;45.48;102486.13;5073060;28;46429;-67
2022/03/26 00:44:01;;;;;;;;;51.75;42.75;;;;;11.92;45.14;102481.59;5078217;28;45357;-67
2022/03/26 00:46:27;;;;;;;;;60.00;46.50;;;;;11.88;46.17;102480.97;5071917;28;45290;-67
2022/03/26 00:48:52;;;;;;;;;54.75;44.75;;;;;11.83;45.30;102483.19;5078024;28;45506;-67
2022/03/26 00:51:18;;;;;;;;;59.50;45.75;;;;;11.84;45.75;102482.16;5070154;28;48107;-67
2022/03/26 00:53:44;;;;;;;;;56.25;44.00;;;;;11.85;45.88;102485.75;5064593;28;45416;-67
2022/03/26 00:56:11;;;;;;;;;58.25;43.75;;;;;11.81;46.33;102487.00;5076971;28;45359;-67
2022/03/26 00:58:37;;;;;;;;;49.75;37.00;;;;;11.71;45.83;102482.19;5065784;27;45333;-67
2022/03/26 01:01:02;;;;;;;;;52.25;42.75;;;;;11.67;45.91;102477.09;5072093;27;45352;-67
2022/03/26 01:03:28;;;;;;;;;55.00;42.50;;;;;11.65;45.89;102484.50;5062611;28;45357;-66
2022/03/26 01:05:53;;;;;;;;;58.25;45.50;;;;;11.64;45.86;102483.63;5074959;28;45398;-66
2022/03/26 01:08:18;;;;;;;;;51.25;38.75;;;;;11.64;45.35;102483.63;5061497;28;45330;-66
2022/03/26 01:10:44;;;;;;;;;63.50;45.25;;;;;11.62;46.00;102487.44;5076967;27;45389;-65
2022/03/26 01:13:10;;;;;;;;;52.00;40.75;;;;;11.61;45.97;102489.31;5065837;28;45291;-65
2022/03/26 01:15:36;;;;;;;;;62.75;47.75;;;;;11.56;46.32;102475.16;5076710;28;45426;-66
2022/03/26 01:18:01;;;;;;;;;60.25;46.50;;;;;11.57;46.10;102485.06;5068342;28;45758;-67
2022/03/26 01:20:27;;;;;;;;;57.00;43.50;;;;;11.50;46.41;102475.59;5076582;28;46361;-67
2022/03/26 01:22:52;;;;;;;;;56.25;44.25;;;;;11.49;46.21;102473.84;5070091;28;45271;-65
2022/03/26 01:25:18;;;;;;;;;57.25;44.00;;;;;11.50;45.93;102474.72;5081647;28;45385;-67
2022/03/26 01:27:43;;;;;;;;;55.25;43.75;;;;;11.52;46.07;102472.78;5073181;27;45203;-68
2022/03/26 01:30:09;;;;;;;;;60.75;44.00;;;;;11.54;45.41;102477.09;5083080;27;45752;-67
2022/03/26 01:32:35;;;;;;;;;63.75;46.75;;;;;11.50;45.89;102474.72;5081044;28;45428;-67
2022/03/26 01:35:00;;;;;;;;;53.50;43.00;;;;;11.40;46.94;102469.06;5067897;28;45441;-68
2022/03/26 01:37:25;;;;;;;;;52.50;42.75;;;;;11.34;46.61;102469.53;5083200;28;45399;-66
2022/03/26 01:39:52;;;;;;;;;56.00;43.75;;;;;11.29;46.64;102474.44;5074287;28;45984;-67
2022/03/26 01:42:17;;;;;;;;;55.25;42.75;;;;;11.27;47.03;102465.50;5077587;28;45655;-67
2022/03/26 01:44:44;;;;;;;;;54.50;45.00;;;;;11.30;46.60;102468.03;5070852;28;45432;-66
2022/03/26 01:47:09;;;;;;;;;53.75;43.00;;;;;11.25;47.32;102464.78;5070922;27;45366;-66
2022/03/26 01:49:35;;;;;;;;;56.25;42.75;;;;;11.27;46.59;102468.25;5069559;28;45233;-66
2022/03/26 01:52:02;;;;;;;;;61.25;41.75;;;;;11.21;47.10;102452.38;5071634;28;45339;-66
2022/03/26 01:54:28;;;;;;;;;58.50;46.00;;;;;11.20;47.10;102462.38;5068992;28;45422;-66
2022/03/26 01:56:55;;;;;;;;;60.50;44.00;;;;;11.22;46.66;102454.97;5071451;28;45337;-66
2022/03/26 01:59:23;;;;;;;;;56.25;46.00;;;;;11.16;47.44;102455.44;5067847;28;46572;-66
2022/03/26 02:01:48;;;;;;;;;60.75;45.00;;;;;11.15;47.04;102463.69;5071958;28;45786;-67
2022/03/26 02:04:14;;;;;;;;;61.50;47.25;;;;;11.09;47.75;102453.25;5068440;28;45904;-66
2022/03/26 02:06:40;;;;;;;;;56.75;40.25;;;;;11.12;46.88;102450.28;5072430;28;45615;-66
2022/03/26 02:09:13;;;;;;;;;58.50;46.75;;;;;11.15;46.62;102459.13;5070214;27;47129;-66
2022/03/26 02:11:41;;;;;;;;;53.75;42.00;;;;;11.11;46.40;102446.72;5074843;28;45322;-66
2022/03/26 02:14:08;;;;;;;;;56.75;41.25;;;;;11.07;46.95;102457.94;5067030;28;45196;-66
2022/03/26 02:16:36;;;;;;;;;57.75;43.50;;;;;11.00;46.93;102453.91;5074095;28;45255;-66
2022/03/26 02:19:03;;;;;;;;;49.50;39.75;;;;;10.95;46.51;102451.53;5068354;28;46085;-66
2022/03/26 02:21:28;;;;;;;;;63.75;49.75;;;;;10.92;47.51;102452.59;5072478;27;44850;-66
2022/03/26 02:23:54;;;;;;;;;61.50;46.00;;;;;10.88;47.03;102445.63;5081835;28;45490;-66
2022/03/26 02:26:22;;;;;;;;;56.00;42.25;;;;;10.73;46.93;102425.00;5074081;28;45570;-66
2022/03/26 02:28:49;;;;;;;;;60.25;47.00;;;;;10.78;47.40;102441.84;5081248;27;47186;-66
2022/03/26 02:31:15;;;;;;;;;58.50;46.00;;;;;10.72;47.89;102430.53;5079484;28;45365;-66
2022/03/26 02:33:42;;;;;;;;;55.50;43.00;;;;;10.73;47.83;102444.03;5081719;28;45378;-66
2022/03/26 02:36:09;;;;;;;;;52.00;40.00;;;;;10.66;48.09;102442.72;5071553;28;45488;-66
2022/03/26 02:38:35;;;;;;;;;65.00;46.25;;;;;10.64;48.52;102439.22;5082662;27;45566;-66
2022/03/26 02:41:01;;;;;;;;;62.50;45.75;;;;;10.49;49.58;102448.44;5080252;27;45286;-66
2022/03/26 02:43:26;;;;;;;;;68.75;49.00;;;;;10.49;49.12;102445.72;5083037;28;45442;-66
2022/03/26 02:45:52;;;;;;;;;64.50;47.00;;;;;10.51;48.93;102446.50;5073117;28;46017;-67
2022/03/26 02:48:17;;;;;;;;;60.25;46.00;;;;;10.50;49.04;102436.59;5083715;28;45619;-66
2022/03/26 02:50:44;;;;;;;;;59.00;46.50;;;;;10.45;48.91;102431.47;5075485;28;45395;-66
2022/03/26 02:53:10;;;;;;;;;53.25;42.00;;;;;10.47;48.72;102439.53;5079498;28;45296;-66
2022/03/26 02:55:35;;;;;;;;;61.50;48.25;;;;;10.46;49.22;102448.66;5076175;28;47669;-66
2022/03/26 02:58:02;;;;;;;;;58.75;44.75;;;;;10.44;49.13;102445.19;5063984;28;45338;-66
2022/03/26 03:00:27;;;;;;;;;60.75;47.75;;;;;10.41;49.08;102434.53;5075071;28;45488;-66
2022/03/26 03:02:53;;;;;;;;;60.00;44.75;;;;;10.42;48.71;102437.13;5062997;28;44941;-66
2022/03/26 03:05:19;;;;;;;;;61.75;48.25;;;;;10.26;49.92;102424.72;5076933;28;45313;-66
2022/03/26 03:07:45;;;;;;;;;64.50;47.00;;;;;10.29;49.82;102429.94;5063251;28;47057;-66
2022/03/26 03:10:15;;;;;;;;;64.00;48.75;;;;;10.27;50.01;102432.75;5073458;28;45555;-66
2022/03/26 03:12:41;;;;;;;;;57.75;43.25;;;;;10.30;49.73;102437.13;5065047;28;45362;-66
2022/03/26 03:15:07;;;;;;;;;59.75;45.00;;;;;10.21;50.31;102435.91;5072869;28;45479;-66
2022/03/26 03:17:39;;;;;;;;;60.75;47.25;;;;;10.23;49.66;102433.09;5081743;28;46940;-66
2022/03/26 03:20:06;;;;;;;;;60.75;45.75;;;;;10.18;49.97;102427.06;5072439;28;45363;-66
2022/03/26 03:22:32;;;;;;;;;61.50;46.25;;;;;10.18;50.59;102435.22;5067515;27;45398;-66
2022/03/26 03:24:57;;;;;;;;;60.75;46.75;;;;;10.10;50.67;102436.59;5077901;28;45528;-66
2022/03/26 03:27:23;;;;;;;;;61.25;45.25;;;;;10.09;50.72;102434.84;5079171;27;48221;-66
2022/03/26 03:29:49;;;;;;;;;55.50;42.75;;;;;10.09;50.24;102437.56;5087178;27;45583;-66
2022/03/26 03:32:14;;;;;;;;;67.00;48.00;;;;;10.13;50.18;102433.69;5069283;27;45530;-66
2022/03/26 03:34:40;;;;;;;;;61.25;48.25;;;;;10.09;50.64;102433.97;5074824;28;45493;-66
2022/03/26 03:37:05;;;;;;;;;61.00;45.50;;;;;10.06;50.90;102434.19;5073430;28;47079;-66
2022/03/26 03:39:31;;;;;;;;;63.25;48.00;;;;;10.01;50.75;102425.47;5074426;27;45307;-66
2022/03/26 03:41:56;;;;;;;;;65.25;50.25;;;;;9.93;51.57;102423.31;5070750;28;45951;-66
2022/03/26 03:44:22;;;;;;;;;66.50;50.25;;;;;9.89;51.46;102432.59;5066261;28;45465;-67
2022/03/26 03:46:47;;;;;;;;;58.25;46.00;;;;;9.85;51.60;102441.94;5087543;27;47052;-67
2022/03/26 03:49:13;;;;;;;;;59.75;46.75;;;;;9.75;52.24;102438.97;5067928;28;45393;-66
2022/03/26 03:51:38;;;;;;;;;69.75;49.25;;;;;9.67;52.79;102435.00;5074683;28;45270;-66
2022/03/26 03:54:05;;;;;;;;;56.00;43.00;;;;;9.59;52.57;102440.06;5079705;28;45392;-66
2022/03/26 03:56:30;;;;;;;;;63.75;48.75;;;;;9.54;52.90;102442.22;5070901;28;47257;-66
2022/03/26 03:58:56;;;;;;;;;61.75;46.75;;;;;9.59;52.01;102440.94;5066567;28;45145;-66
2022/03/26 04:01:22;;;;;;;;;63.75;46.75;;;;;9.64;52.32;102441.50;5074159;28;45436;-67
2022/03/26 04:03:47;;;;;;;;;63.25;47.00;;;;;9.66;51.90;102436.84;5065987;28;45417;-66
2022/03/26 04:06:13;;;;;;;;;65.25;48.75;;;;;9.62;52.31;102445.31;5073672;27;45405;-67
2022/03/26 04:08:38;;;;;;;;;66.00;49.25;;;;;9.64;51.88;102443.38;5067133;28;45295;-66
2022/03/26 04:11:03;;;;;;;;;60.00;47.00;;;;;9.60;52.18;102439.09;5073319;28;45376;-66
2022/03/26 04:13:29;;;;;;;;;58.00;46.25;;;;;9.63;51.53;102441.63;5063386;28;45368;-66
2022/03/26 04:15:55;;;;;;;;;70.25;48.25;;;;;9.66;52.55;102454.97;5085258;27;47210;-66
2022/03/26 04:18:20;;;;;;;;;65.50;47.25;;;;;9.64;51.53;102456.94;5076049;28;45365;-66
2022/03/26 04:20:46;;;;;;;;;72.00;50.25;;;;;9.65;51.98;102455.94;5068495;28;45430;-66
2022/03/26 04:23:11;;;;;;;;;61.75;46.75;;;;;9.61;51.64;102446.28;5063634;28;45416;-67
2022/03/26 04:25:38;;;;;;;;;59.25;47.25;;;;;9.61;52.20;102457.13;5073908;28;46496;-66
2022/03/26 04:28:04;;;;;;;;;60.75;48.50;;;;;9.60;51.63;102453.53;5074177;27;45525;-66
2022/03/26 04:30:29;;;;;;;;;63.25;50.75;;;;;9.57;52.33;102458.31;5077229;27;45592;-66
2022/03/26 04:32:55;;;;;;;;;63.00;48.00;;;;;9.58;51.68;102460.03;5070522;28;45253;-66
2022/03/26 04:35:21;;;;;;;;;66.00;44.25;;;;;9.56;52.00;102456.56;5067711;28;46697;-66
2022/03/26 04:37:46;;;;;;;;;57.25;47.00;;;;;9.51;52.52;102461.41;5082529;28;45248;-66
2022/03/26 04:40:13;;;;;;;;;59.75;45.00;;;;;9.42;52.13;102457.47;5079310;28;45410;-66
2022/03/26 04:42:42;;;;;;;;;59.25;44.00;;;;;9.47;52.14;102455.31;5081785;28;45387;-66
2022/03/26 04:45:09;;;;;;;;;61.75;46.25;;;;;9.52;52.21;102449.59;5082439;28;47130;-66
2022/03/26 04:47:35;;;;;;;;;69.50;50.25;;;;;9.46;52.08;102450.88;5084346;28;45382;-66
2022/03/26 04:50:00;;;;;;;;;67.75;53.00;;;;;9.41;52.47;102454.84;5077073;27;45364;-66
2022/03/26 04:52:25;;;;;;;;;71.50;52.00;;;;;9.38;52.93;102461.34;5083519;28;45576;-66
2022/03/26 04:54:51;;;;;;;;;65.25;48.00;;;;;9.36;52.43;102453.28;5078364;28;47554;-66
2022/03/26 04:57:18;;;;;;;;;58.50;45.50;;;;;9.36;52.66;102464.16;5070560;27;45464;-66
2022/03/26 04:59:44;;;;;;;;;66.00;49.25;;;;;9.38;52.97;102462.22;5073164;28;45388;-66
2022/03/26 05:02:09;;;;;;;;;62.00;48.50;;;;;9.24;53.46;102459.53;5071948;28;45437;-66
2022/03/26 05:04:35;;;;;;;;;69.25;49.00;;;;;9.22;53.65;102463.28;5071866;28;45448;-66
2022/03/26 05:07:00;;;;;;;;;61.25;49.50;;;;;9.20;52.96;102452.56;5072871;28;45404;-66
2022/03/26 05:09:25;;;;;;;;;66.75;49.50;;;;;9.28;53.01;102452.91;5068994;28;45288;-66
2022/03/26 05:11:51;;;;;;;;;64.75;50.50;;;;;9.29;53.08;102456.50;5076794;27;45313;-66
2022/03/26 05:14:17;;;;;;;;;60.00;46.00;;;;;9.28;52.72;102452.91;5067854;28;46100;-66
2022/03/26 05:16:43;;;;;;;;;63.75;49.00;;;;;9.19;53.37;102461.66;5090075;27;45359;-66
2022/03/26 05:19:09;;;;;;;;;63.25;48.75;;;;;9.28;52.99;102471.03;5071091;28;45422;-66
2022/03/26 05:21:34;;;;;;;;;72.75;50.50;;;;;9.26;52.85;102465.72;5074861;28;45652;-66
2022/03/26 05:23:59;;;;;;;;;70.25;49.00;;;;;9.23;52.94;102459.59;5075011;28;45301;-66
2022/03/26 05:26:25;;;;;;;;;68.25;52.00;;;;;9.25;52.63;102469.41;5074059;28;45458;-66
2022/03/26 05:28:51;;;;;;;;;68.75;52.00;;;;;9.24;53.09;102472.22;5080940;27;45469;-66
2022/03/26 05:31:16;;;;;;;;;57.75;46.50;;;;;9.18;53.22;102478.91;5074884;28;45327;-66
2022/03/26 05:33:41;;;;;;;;;63.75;47.75;;;;;9.16;53.08;102483.53;5075927;28;46631;-66
2022/03/26 05:36:07;;;;;;;;;65.50;52.25;;;;;9.16;53.34;102488.97;5072144;27;45397;-66
2022/03/26 05:38:33;;;;;;;;;67.25;50.25;;;;;9.14;53.50;102482.75;5083892;28;45452;-66
2022/03/26 05:40:58;;;;;;;;;63.50;49.75;;;;;9.08;54.19;102488.56;5072585;28;45306;-66
2022/03/26 05:43:24;;;;;;;;;73.00;51.00;;;;;9.02;53.34;102486.25;5084465;27;45648;-67
2022/03/26 05:45:51;;;;;;;;;66.50;50.00;;;;;9.10;53.54;102497.50;5076220;27;45381;-66
2022/03/26 05:48:17;;;;;;;;;70.00;51.75;;;;;9.13;53.58;102491.84;5064084;28;45280;-66
2022/03/26 05:50:44;;;;;;;;;72.00;50.25;;;;;9.13;53.22;102486.44;5076721;28;45412;-65
2022/03/26 05:53:10;;;;;;;;;68.25;51.75;;;;;9.13;53.16;102489.16;5065156;28;45622;-66
2022/03/26 05:55:36;;;;;;;;;68.50;52.75;;;;;9.10;54.39;102483.94;5075921;28;45472;-65
2022/03/26 05:58:01;;;;;;;;;71.00;54.25;;;;;9.01;54.43;102487.22;5065270;28;45484;-66
2022/03/26 06:00:27;;;;;;;;;68.50;51.00;;;;;9.03;53.53;102488.00;5078523;28;45515;-65
2022/03/26 06:02:52;;;;;;;;;58.75;47.25;;;;;9.09;53.29;102484.91;5064980;28;46010;-65
2022/03/26 06:05:17;;;;;;;;;64.00;50.25;;;;;9.20;53.18;102482.41;5077046;28;45455;-65
2022/03/26 06:07:43;;;;;;;;;62.00;50.00;;;;;9.31;52.74;102485.28;5066144;28;45450;-66
2022/03/26 06:10:08;;;;;;;;;69.50;51.25;;;;;9.36;52.85;102499.41;5074057;28;45362;-66
2022/03/26 06:12:35;;;;;;;;;67.25;53.25;;;;;9.39;52.90;102495.63;5067094;28;46518;-66
2022/03/26 06:15:03;;;;;;;;;70.25;51.25;;;;;9.44;52.96;102506.19;5081363;28;45445;-65
2022/03/26 06:17:28;;;;;;;;;65.00;49.50;;;;;9.46;52.65;102504.25;5069966;27;45543;-66
2022/03/26 06:19:53;;;;;;;;;71.00;49.00;;;;;9.55;52.93;102514.53;5071342;27;45305;-65
2022/03/26 06:22:19;;;;;;;;;65.75;48.00;;;;;9.52;53.10;102506.56;5084473;27;46879;-66
2022/03/26 06:24:44;;;;;;;;;66.50;48.00;;;;;9.65;52.69;102521.06;5077675;28;45342;-65
2022/03/26 06:27:09;;;;;;;;;69.00;53.25;;;;;10.09;52.16;102515.44;5070371;28;45358;-66
2022/03/26 06:29:36;;;;;;;;;69.00;52.75;;;;;10.72;50.24;102515.69;5099426;27;45364;-65
2022/03/26 06:32:02;;;;;;;;;65.75;51.50;;;;;10.74;50.07;102521.03;5063399;28;48247;-66
2022/03/26 06:34:28;;;;;;;;;71.00;53.00;;;;;10.52;50.47;102518.88;5080375;28;45480;-66
2022/03/26 06:36:54;;;;;;;;;65.00;49.00;;;;;10.45;50.68;102525.72;5064157;28;45329;-66
2022/03/26 06:39:19;;;;;;;;;68.75;51.50;;;;;10.44;50.48;102521.28;5067380;28;47762;-67
2022/03/26 06:41:45;;;;;;;;;64.50;49.75;;;;;10.39;51.04;102528.84;5075261;28;46261;-66
2022/03/26 06:44:10;;;;;;;;;69.50;51.75;;;;;10.41;50.63;102526.91;5079386;27;45600;-67
2022/03/26 06:46:37;;;;;;;;;70.25;51.50;;;;;10.35;50.75;102541.78;5073324;28;45410;-67
2022/03/26 06:49:05;;;;;;;;;64.75;50.75;;;;;10.47;50.29;102538.22;5066953;28;45288;-67
2022/03/26 06:51:31;;;;;;;;;69.50;49.75;;;;;10.61;49.59;102540.00;5073041;28;45280;-67
2022/03/26 06:53:58;;;;;;;;;70.75;52.50;;;;;11.03;48.62;102543.47;5066283;28;46095;-68
2022/03/26 06:56:23;;;;;;;;;63.25;49.50;;;;;10.75;48.92;102542.63;5079651;28;45464;-67
2022/03/26 06:58:49;;;;;;;;;68.00;52.00;;;;;10.60;49.38;102537.38;5066305;27;45320;-67
2022/03/26 07:01:15;;;;;;;;;64.25;49.25;;;;;10.69;49.47;102537.63;5068757;27;45558;-67
2022/03/26 07:03:40;;;;;;;;;71.75;54.75;;;;;10.67;49.51;102542.28;5063064;28;45318;-67
2022/03/26 07:06:05;;;;;;;;;67.50;51.75;;;;;10.70;49.60;102547.53;5068732;28;45458;-66
2022/03/26 07:08:31;;;;;;;;;67.75;52.75;;;;;10.70;49.01;102555.69;5063915;28;45516;-67
2022/03/26 07:10:56;;;;;;;;;63.25;49.00;;;;;10.63;49.15;102548.06;5087480;27;48538;-67
2022/03/26 07:13:21;;;;;;;;;61.50;46.25;;;;;10.68;49.33;102560.34;5082847;28;45358;-67
2022/03/26 07:15:47;;;;;;;;;65.50;51.50;;;;;10.89;48.84;102555.28;5070935;28;45239;-67
2022/03/26 07:18:12;;;;;;;;;67.00;52.75;;;;;10.88;48.42;102557.13;5075877;28;45402;-67
2022/03/26 07:20:38;;;;;;;;;69.00;50.75;;;;;11.01;48.29;102564.44;5074758;28;45378;-67
2022/03/26 07:23:04;;;;;;;;;70.50;48.25;;;;;11.00;47.76;102554.53;5081160;28;45584;-67
2022/03/26 07:25:30;;;;;;;;;59.50;44.75;;;;;11.14;47.94;102571.63;5064262;28;45437;-67
2022/03/26 07:27:56;;;;;;;;;62.50;50.75;;;;;11.25;47.72;102568.16;5092978;27;45596;-67
2022/03/26 07:30:22;;;;;;;;;62.25;49.00;;;;;11.27;47.53;102566.19;5062075;28;46578;-67
2022/03/26 07:32:47;;;;;;;;;68.50;50.25;;;;;11.30;47.34;102576.88;5066484;28;45430;-68
2022/03/26 07:35:13;;;;;;;;;67.25;48.25;;;;;11.32;47.33;102581.19;5066790;28;45262;-65
2022/03/26 07:37:38;;;;;;;;;69.75;52.00;;;;;11.20;47.76;102570.31;5066810;28;45620;-67
2022/03/26 07:40:05;;;;;;;;;60.00;48.50;;;;;11.22;48.21;102571.09;5075192;28;47608;-65
2022/03/26 07:42:31;;;;;;;;;72.50;52.00;;;;;11.34;47.82;102578.38;5068973;28;45730;-65
2022/03/26 07:44:56;;;;;;;;;63.75;49.25;;;;;11.60;47.42;102577.41;5073975;28;45542;-65
2022/03/26 07:47:22;;;;;;;;;62.00;49.00;;;;;11.78;46.66;102568.91;5079507;28;45520;-65
2022/03/26 07:49:47;;;;;;;;;67.75;53.25;;;;;11.85;46.34;102572.91;5067548;28;45509;-65
2022/03/26 07:52:13;;;;;;;;;57.75;47.25;;;;;12.16;46.07;102576.97;5074514;28;45346;-66
2022/03/26 07:54:38;;;;;;;;;62.50;48.00;;;;;12.43;44.86;102555.81;5062143;28;45393;-66
2022/03/26 07:57:04;;;;;;;;;67.25;48.25;;;;;12.56;44.50;102569.41;5064963;28;45265;-66
2022/03/26 07:59:30;;;;;;;;;64.50;48.25;;;;;12.74;43.92;102562.53;5066889;28;46659;-66
2022/03/26 08:01:56;;;;;;;;;69.00;48.75;;;;;12.99;43.29;102558.78;5071444;28;45431;-66
2022/03/26 08:04:21;;;;;;;;;64.00;47.75;;;;;13.21;42.97;102575.22;5070504;28;45730;-66
2022/03/26 08:06:47;;;;;;;;;65.25;49.25;;;;;13.44;42.63;102568.78;5069399;28;45663;-66
2022/03/26 08:09:12;;;;;;;;;55.00;44.00;;;;;13.59;41.97;102572.16;5064815;28;46931;-66
2022/03/26 08:11:38;;;;;;;;;57.50;43.25;;;;;13.86;41.42;102574.53;5071691;28;45263;-66
2022/03/26 08:14:03;;;;;;;;;58.75;47.25;;;;;14.11;40.78;102581.56;5063375;28;45466;-66
2022/03/26 08:16:28;;;;;;;;;57.00;43.75;;;;;14.25;40.66;102581.28;5071992;28;45910;-67
2022/03/26 08:18:54;;;;;;;;;54.00;41.50;;;;;14.46;39.91;102568.59;5067355;28;46272;-67
2022/03/26 08:21:20;;;;;;;;;53.00;43.00;;;;;14.72;39.72;102567.25;5071521;28;45515;-66
2022/03/26 08:23:46;;;;;;;;;63.00;48.75;;;;;14.98;38.45;102569.59;5062984;28;45356;-67
2022/03/26 08:26:26;;;;;;;;;54.75;44.00;;;;;15.28;38.77;102583.34;5072560;28;45337;-67
2022/03/26 08:28:54;;;;;;;;;63.75;48.50;;;;;15.46;37.51;102581.75;5079759;27;48303;-67
2022/03/26 08:31:21;;;;;;;;;55.00;42.75;;;;;15.75;37.68;102576.44;5075833;27;45503;-67
2022/03/26 08:33:47;;;;;;;;;50.50;38.50;;;;;16.06;37.64;102570.94;5063852;28;45318;-67
2022/03/26 08:36:13;;;;;;;;;52.25;42.50;;;;;16.34;37.02;102575.59;5069507;28;45492;-67
2022/03/26 08:38:40;;;;;;;;;57.00;43.25;;;;;16.58;36.47;102573.31;5080580;27;46588;-67
2022/03/26 08:41:06;;;;;;;;;59.00;44.25;;;;;16.78;35.73;102576.97;5064581;28;45359;-67
2022/03/26 08:43:32;;;;;;;;;57.50;41.50;;;;;16.64;34.57;102569.19;5062245;28;45323;-67
2022/03/26 08:45:58;;;;;;;;;54.75;43.00;;;;;16.91;34.87;102584.91;5070796;28;45467;-67
2022/03/26 08:48:23;;;;;;;;;59.50;43.75;;;;;17.05;34.28;102568.88;5081872;27;46549;-67
2022/03/26 08:50:48;;;;;;;;;54.25;42.75;;;;;17.11;33.50;102573.75;5073650;28;45299;-67
2022/03/26 08:53:14;;;;;;;;;55.25;42.50;;;;;17.39;33.87;102576.59;5062294;28;45485;-67
2022/03/26 08:55:39;;;;;;;;;50.25;36.00;;;;;17.83;33.13;102581.41;5073875;28;45402;-67
2022/03/26 08:58:07;;;;;;;;;52.25;40.25;;;;;18.03;32.84;102570.31;5061778;28;46452;-67
2022/03/26 09:00:34;;;;;;;;;49.75;41.75;;;;;17.89;31.34;102569.81;5073402;28;45371;-67
2022/03/26 09:03:00;;;;;;;;;56.50;42.25;;;;;17.86;32.78;102578.34;5060871;28;45308;-67
2022/03/26 09:05:25;;;;;;;;;50.00;39.50;;;;;18.05;33.13;102573.75;5075882;28;46037;-67
2022/03/26 09:07:51;;;;;;;;;46.00;37.25;;;;;18.37;32.45;102567.78;5062436;28;46077;-67
2022/03/26 09:10:16;;;;;;;;;54.50;43.25;;;;;18.53;31.70;102570.72;5071689;28;45401;-67
2022/03/26 09:12:42;;;;;;;;;52.25;43.25;;;;;18.71;31.40;102565.25;5064242;28;45468;-67
2022/03/26 09:15:08;;;;;;;;;55.50;42.00;;;;;18.35;31.15;102565.19;5075913;28;45405;-67
2022/03/26 09:17:36;;;;;;;;;52.25;42.00;;;;;18.73;30.06;102568.72;5065226;28;47063;-67
2022/03/26 09:20:06;;;;;;;;;54.75;41.25;;;;;18.74;30.70;102574.06;5067202;28;45420;-67
2022/03/26 09:22:32;;;;;;;;;46.75;38.75;;;;;19.24;31.41;102566.06;5062159;28;45349;-67
2022/03/26 09:24:58;;;;;;;;;58.75;45.00;;;;;19.65;29.71;102564.44;5067623;28;45547;-67
2022/03/26 09:27:23;;;;;;;;;51.00;40.00;;;;;19.84;29.27;102566.09;5061864;27;45476;-67
2022/03/26 09:29:49;;;;;;;;;49.25;42.00;;;;;19.73;27.82;102563.63;5081219;27;45234;-67
2022/03/26 09:32:14;;;;;;;;;49.25;39.00;;;;;19.82;28.93;102570.91;5080108;28;45446;-68
2022/03/26 09:34:40;;;;;;;;;57.25;44.25;;;;;19.93;28.59;102548.56;5078746;27;45401;-66
2022/03/26 09:37:06;;;;;;;;;49.50;41.00;;;;;20.05;28.56;102565.69;5078399;28;46616;-66
2022/03/26 09:39:31;;;;;;;;;51.75;40.00;;;;;19.96;28.84;102561.16;5078298;28;45377;-66
2022/03/26 09:41:58;;;;;;;;;50.75;41.50;;;;;20.10;28.77;102571.56;5082397;28;45475;-66
2022/03/26 09:44:24;;;;;;;;;52.50;42.25;;;;;20.64;28.35;102559.16;5082997;28;45378;-66
2022/03/26 09:46:50;;;;;;;;;51.00;41.50;;;;;20.96;28.01;102564.72;5073163;28;46783;-66
2022/03/26 09:49:15;;;;;;;;;49.00;40.25;;;;;20.94;27.11;102554.84;5067174;28;45519;-66
2022/03/26 09:51:41;;;;;;;;;46.00;39.00;;;;;20.82;28.58;102553.47;5073883;28;45307;-66
2022/03/26 09:54:07;;;;;;;;;37.25;34.00;;;;;21.28;28.39;102554.69;5065290;28;45362;-66
2022/03/26 09:56:34;;;;;;;;;56.25;42.00;;;;;21.43;26.56;102552.94;5064481;28;45490;-67
2022/03/26 09:59:00;;;;;;;;;50.50;39.50;;;;;21.47;26.53;102548.78;5083644;27;45495;-67
2022/03/26 10:01:26;;;;;;;;;41.00;34.25;;;;;21.47;26.84;102557.09;5073234;28;45578;-66
2022/03/26 10:04:08;;;;;;;;;40.75;36.50;;;;;20.84;26.56;102549.50;5067281;28;45367;-66
2022/03/26 10:06:34;;;;;;;;;50.25;41.75;;;;;21.16;26.93;102547.75;5075437;27;46271;-67
2022/03/26 10:08:59;;;;;;;;;51.50;41.75;;;;;21.19;26.41;102542.75;5066033;28;45460;-67
2022/03/26 10:11:24;;;;;;;;;49.00;39.00;;;;;21.51;27.07;102552.91;5068496;28;45329;-67
2022/03/26 10:13:52;;;;;;;;;52.75;41.25;;;;;21.93;25.45;102537.91;5065229;28;45587;-67
2022/03/26 10:16:18;;;;;;;;;50.50;41.50;;;;;22.25;24.96;102546.09;5072702;27;46201;-66
2022/03/26 10:18:45;;;;;;;;;53.50;42.75;;;;;22.29;25.13;102546.56;5065949;28;45812;-67
2022/03/26 10:21:15;;;;;;;;;53.75;42.50;;;;;22.06;24.37;102543.78;5072793;28;45471;-67
2022/03/26 10:23:45;;;;;;;;;53.50;40.00;;;;;21.70;24.83;102546.97;5073613;28;45596;-66
2022/03/26 10:26:13;;;;;;;;;45.00;38.25;;;;;21.90;25.60;102532.75;5073962;27;46548;-66
2022/03/26 10:28:43;;;;;;;;;58.25;43.00;;;;;22.15;25.33;102539.91;5068106;27;45524;-66
2022/03/26 10:34:09;;;;;;;;;52.75;42.00;;;;;22.39;24.71;102536.13;5075916;28;45357;-66
2022/03/26 10:36:41;;;;;;;;;50.50;40.75;;;;;22.58;24.76;102540.31;5076009;27;48448;-66
2022/03/26 10:39:16;;;;;;;;;52.50;41.00;;;;;22.61;24.88;102526.97;5073704;28;45441;-66
2022/03/26 10:41:42;;;;;;;;;49.75;41.00;;;;;22.81;24.79;102531.00;5060853;28;45548;-66
2022/03/26 10:44:19;;;;;;;;;52.25;41.50;;;;;22.99;24.49;102533.47;5078323;28;45733;-66
2022/03/26 10:46:54;;;;;;;;;57.00;43.50;;;;;23.15;24.03;102521.34;5065277;28;45434;-66
2022/03/26 10:49:28;;;;;;;;;56.75;44.50;;;;;23.29;23.79;102532.47;5075241;27;45384;-66
2022/03/26 10:51:54;;;;;;;;;51.50;41.25;;;;;23.30;23.29;102514.75;5073161;28;45453;-65
2022/03/26 10:54:26;;;;;;;;;50.25;39.50;;;;;23.36;23.69;102517.84;5074387;28;45444;-65
2022/03/26 10:56:52;;;;;;;;;54.75;41.00;;;;;23.40;22.60;102519.19;5071710;28;46117;-66
2022/03/26 10:59:18;;;;;;;;;56.00;43.50;;;;;23.23;21.98;102502.69;5068814;28;45645;-65
2022/03/26 11:01:43;;;;;;;;;62.50;46.75;;;;;23.27;21.92;102526.25;5080818;27;45247;-66
2022/03/26 11:04:08;;;;;;;;;54.00;40.25;;;;;23.05;22.09;102507.75;5066534;28;45536;-65
2022/03/26 11:06:39;;;;;;;;;54.75;42.50;;;;;23.08;22.62;102514.84;5074930;27;46441;-65
2022/03/26 11:09:06;;;;;;;;;49.00;40.50;;;;;22.97;21.65;102523.59;5065864;28;45430;-66